Time;durP1;ratioP1;P1;durP2;ratioP2;P2;SDS_P1;SDS_P2;PMS_P1;PMS_P2;Temp;Humidity;BMP_temperature;BMP_pressure;BME280_temperature;BME280_humidity;BME280_pressure;Samples;Min_cycle;Max_cycle;Signal;HPM_P1;HPM_P2
2023/11/16 00:01:58;;;;;;;394.33;375.70;;;7.30;99.90;;;;;;6155141;23;20911;-73
2023/11/16 00:04:26;;;;;;;372.60;354.57;;;7.30;99.90;;;;;;6155445;23;20479;-73
2023/11/16 00:06:53;;;;;;;365.90;350.07;;;7.30;99.90;;;;;;6155588;23;20407;-72
2023/11/16 00:09:21;;;;;;;372.73;355.43;;;7.20;99.90;;;;;;6154838;23;20406;-73
2023/11/16 00:11:49;;;;;;;376.27;358.97;;;7.20;99.90;;;;;;6155154;23;20467;-72
2023/11/16 00:14:16;;;;;;;368.63;352.27;;;7.20;99.90;;;;;;6154858;23;20972;-73
2023/11/16 00:16:44;;;;;;;362.17;346.27;;;7.20;99.90;;;;;;6154928;23;20497;-72
2023/11/16 00:19:12;;;;;;;367.87;350.73;;;7.20;99.90;;;;;;6155182;23;20411;-73
2023/11/16 00:21:39;;;;;;;361.90;346.70;;;7.20;99.90;;;;;;6154873;23;20559;-73
2023/11/16 00:24:06;;;;;;;363.03;347.27;;;7.20;99.90;;;;;;6154823;23;20926;-73
2023/11/16 00:26:35;;;;;;;351.20;335.23;;;7.20;99.90;;;;;;6155180;23;20412;-73
2023/11/16 00:29:02;;;;;;;341.53;327.10;;;7.30;99.90;;;;;;6154785;23;20494;-72
2023/11/16 00:31:30;;;;;;;348.70;334.37;;;7.30;99.90;;;;;;6155199;23;20443;-72
2023/11/16 00:33:57;;;;;;;337.83;322.97;;;7.20;99.90;;;;;;6155131;23;20531;-74
2023/11/16 00:36:24;;;;;;;337.97;324.17;;;7.20;99.90;;;;;;6155273;23;20411;-74
2023/11/16 00:38:51;;;;;;;342.47;328.17;;;7.30;99.90;;;;;;6154576;23;20471;-74
2023/11/16 00:41:18;;;;;;;340.10;326.10;;;7.30;99.90;;;;;;6154697;23;20415;-74
2023/11/16 00:43:48;;;;;;;346.83;331.53;;;7.30;99.90;;;;;;6154880;23;20412;-74
2023/11/16 00:46:15;;;;;;;329.23;315.13;;;7.30;99.90;;;;;;6154594;23;20413;-74
2023/11/16 00:48:43;;;;;;;317.43;304.07;;;7.40;99.90;;;;;;6154939;23;20421;-74
2023/11/16 00:51:10;;;;;;;309.30;296.60;;;7.40;99.90;;;;;;6155111;23;20466;-74
2023/11/16 00:53:40;;;;;;;290.30;278.80;;;7.50;99.90;;;;;;6154888;23;20515;-74
2023/11/16 00:56:08;;;;;;;276.67;265.47;;;7.50;99.90;;;;;;6154666;23;20479;-74
2023/11/16 00:58:35;;;;;;;258.43;248.40;;;7.60;99.90;;;;;;6154893;23;20466;-74
2023/11/16 01:01:04;;;;;;;251.53;240.83;;;7.60;99.90;;;;;;6154935;23;20417;-74
2023/11/16 01:03:31;;;;;;;238.23;228.63;;;7.70;99.90;;;;;;6154921;23;20418;-74
2023/11/16 01:05:58;;;;;;;209.13;201.30;;;7.70;99.90;;;;;;6154631;23;20412;-74
2023/11/16 01:08:29;;;;;;;203.10;195.60;;;7.80;99.90;;;;;;6154867;23;20782;-74
2023/11/16 01:10:57;;;;;;;180.23;173.43;;;7.80;99.90;;;;;;6154757;23;20432;-73
2023/11/16 01:13:28;;;;;;;175.07;168.57;;;7.80;99.90;;;;;;6155082;23;20412;-73
2023/11/16 01:15:57;;;;;;;160.20;153.83;;;7.90;99.90;;;;;;6154499;23;20952;-74
2023/11/16 01:18:27;;;;;;;140.53;134.77;;;7.90;99.90;;;;;;6154311;23;20461;-74
2023/11/16 01:20:57;;;;;;;131.03;125.83;;;8.00;99.90;;;;;;6155010;23;20408;-74
2023/11/16 01:23:25;;;;;;;110.47;105.67;;;8.00;99.90;;;;;;6155139;23;20391;-73
2023/11/16 01:25:52;;;;;;;104.10;99.70;;;8.00;99.90;;;;;;6154891;23;20483;-73
2023/11/16 01:28:20;;;;;;;100.17;96.20;;;8.00;99.90;;;;;;6154716;23;20448;-73
2023/11/16 01:30:48;;;;;;;91.13;86.67;;;8.00;99.90;;;;;;6154770;23;20416;-73
2023/11/16 01:33:15;;;;;;;100.70;96.23;;;8.00;99.90;;;;;;6155073;23;20412;-73
2023/11/16 01:35:44;;;;;;;91.83;87.80;;;8.00;99.90;;;;;;6154703;23;20438;-73
2023/11/16 01:38:12;;;;;;;97.60;93.60;;;8.00;99.90;;;;;;6154735;23;20499;-73
2023/11/16 01:40:40;;;;;;;90.67;86.93;;;8.00;99.90;;;;;;6155248;23;20416;-73
2023/11/16 01:43:08;;;;;;;95.70;92.07;;;8.00;99.90;;;;;;6156929;23;20421;-73
2023/11/16 01:45:36;;;;;;;99.87;95.90;;;8.00;99.90;;;;;;6156582;23;20421;-73
2023/11/16 01:48:06;;;;;;;106.33;102.07;;;8.00;99.90;;;;;;6156459;23;20412;-73
2023/11/16 01:50:35;;;;;;;111.77;106.50;;;8.00;99.90;;;;;;6156799;23;20463;-73
2023/11/16 01:53:09;;;;;;;104.83;100.70;;;8.10;99.90;;;;;;6156277;23;20411;-72
2023/11/16 01:55:38;;;;;;;104.43;100.23;;;8.10;99.90;;;;;;6156095;23;20492;-72
2023/11/16 01:58:05;;;;;;;117.43;112.10;;;8.00;99.90;;;;;;6156377;23;20506;-72
2023/11/16 02:00:34;;;;;;;113.77;108.50;;;8.10;99.90;;;;;;6156299;23;20453;-72
2023/11/16 02:03:03;;;;;;;115.90;111.20;;;8.10;99.90;;;;;;6156461;23;20424;-72
2023/11/16 02:05:32;;;;;;;126.60;120.80;;;8.00;99.90;;;;;;6156220;23;20410;-72
2023/11/16 02:07:59;;;;;;;116.87;111.80;;;8.00;99.90;;;;;;6156057;23;20409;-72
2023/11/16 02:10:30;;;;;;;112.23;107.43;;;8.10;99.90;;;;;;6156311;23;20412;-72
2023/11/16 02:12:58;;;;;;;110.10;105.80;;;8.10;99.90;;;;;;6156647;23;20396;-72
2023/11/16 02:15:27;;;;;;;105.10;100.40;;;8.10;99.90;;;;;;6156716;23;20447;-71
2023/11/16 02:17:54;;;;;;;113.33;109.30;;;8.10;99.90;;;;;;6156378;23;20750;-71
2023/11/16 02:20:26;;;;;;;116.90;112.50;;;8.10;99.90;;;;;;6155973;23;20450;-71
2023/11/16 02:22:55;;;;;;;124.03;118.93;;;8.00;99.90;;;;;;6156114;23;20404;-71
2023/11/16 02:25:26;;;;;;;130.50;125.33;;;8.00;99.90;;;;;;6156358;23;20442;-72
2023/11/16 02:27:54;;;;;;;135.77;130.47;;;8.00;99.90;;;;;;6155887;23;20396;-71
2023/11/16 02:30:22;;;;;;;139.40;134.07;;;8.00;99.90;;;;;;6156289;23;20735;-71
2023/11/16 02:32:50;;;;;;;136.73;131.03;;;8.00;99.90;;;;;;6156296;23;20410;-71
2023/11/16 02:35:17;;;;;;;134.23;128.90;;;8.00;99.90;;;;;;6156196;23;20465;-71
2023/11/16 02:37:43;;;;;;;134.47;128.57;;;8.00;99.90;;;;;;6156118;23;20497;-71
2023/11/16 02:40:11;;;;;;;131.47;125.77;;;8.00;99.90;;;;;;6155687;23;20445;-71
2023/11/16 02:42:40;;;;;;;133.37;128.07;;;8.00;99.90;;;;;;6156201;23;20495;-71
2023/11/16 02:45:08;;;;;;;127.73;122.73;;;8.00;99.90;;;;;;6156144;23;20447;-71
2023/11/16 02:47:36;;;;;;;118.47;113.10;;;8.00;99.90;;;;;;6155882;23;20452;-71
2023/11/16 02:50:04;;;;;;;122.00;117.33;;;8.00;99.90;;;;;;6155994;23;20493;-71
2023/11/16 02:52:31;;;;;;;134.00;128.80;;;8.00;99.90;;;;;;6156059;23;20412;-71
2023/11/16 02:54:58;;;;;;;140.40;135.40;;;8.00;99.90;;;;;;6155526;23;20526;-71
2023/11/16 02:57:25;;;;;;;135.37;130.10;;;8.00;99.90;;;;;;6155773;23;20395;-71
2023/11/16 02:59:53;;;;;;;135.33;129.63;;;8.00;99.90;;;;;;6155972;23;20537;-71
2023/11/16 03:02:20;;;;;;;134.17;128.37;;;8.00;99.90;;;;;;6155844;23;20412;-71
2023/11/16 03:04:47;;;;;;;134.07;129.17;;;8.00;99.90;;;;;;6155911;23;20412;-71
2023/11/16 03:07:15;;;;;;;145.83;140.33;;;7.90;99.90;;;;;;6155607;23;20968;-71
2023/11/16 03:09:42;;;;;;;160.87;154.67;;;7.90;99.90;;;;;;6155515;23;20412;-71
2023/11/16 03:12:09;;;;;;;172.00;165.90;;;7.90;99.90;;;;;;6155927;23;20503;-71
2023/11/16 03:14:36;;;;;;;174.40;167.70;;;7.90;99.90;;;;;;6155358;23;20480;-71
2023/11/16 03:17:06;;;;;;;177.80;170.40;;;7.90;99.90;;;;;;6155434;23;20420;-71
2023/11/16 03:19:33;;;;;;;180.33;174.20;;;7.90;99.90;;;;;;6155841;23;20406;-70
2023/11/16 03:22:02;;;;;;;184.20;177.67;;;7.90;99.90;;;;;;6155542;23;20418;-71
2023/11/16 03:24:30;;;;;;;178.30;171.10;;;7.90;99.90;;;;;;6155630;23;20416;-71
2023/11/16 03:26:57;;;;;;;186.17;179.57;;;7.90;99.90;;;;;;6155860;23;20726;-71
2023/11/16 03:29:25;;;;;;;184.20;177.60;;;7.90;99.90;;;;;;6155561;23;20500;-70
2023/11/16 03:31:52;;;;;;;195.40;188.40;;;7.80;99.90;;;;;;6155699;23;20412;-71
2023/11/16 03:34:20;;;;;;;205.10;196.87;;;7.80;99.90;;;;;;6155199;23;20945;-71
2023/11/16 03:36:47;;;;;;;217.13;208.90;;;7.70;99.90;;;;;;6155865;23;20803;-71
2023/11/16 03:39:16;;;;;;;237.83;228.93;;;7.70;99.90;;;;;;6155152;23;20935;-71
2023/11/16 03:41:43;;;;;;;263.63;253.63;;;7.60;99.90;;;;;;6155659;23;20793;-71
2023/11/16 03:44:10;;;;;;;305.67;294.07;;;7.60;99.90;;;;;;6155089;23;20498;-71
2023/11/16 03:46:38;;;;;;;317.77;305.47;;;7.50;99.90;;;;;;6155649;23;20457;-71
2023/11/16 03:49:05;;;;;;;340.13;326.77;;;7.50;99.90;;;;;;6155402;23;20435;-70
2023/11/16 03:51:33;;;;;;;362.83;348.33;;;7.50;99.90;;;;;;6155283;23;20883;-71
2023/11/16 03:54:00;;;;;;;390.07;374.10;;;7.40;99.90;;;;;;6155521;23;20412;-71
2023/11/16 03:56:27;;;;;;;400.57;384.57;;;7.40;99.90;;;;;;6155048;23;20438;-71
2023/11/16 03:58:54;;;;;;;413.20;395.00;;;7.40;99.90;;;;;;6155065;23;20789;-71
2023/11/16 04:01:20;;;;;;;404.17;386.67;;;7.50;99.90;;;;;;6154378;23;20417;-71
2023/11/16 04:03:47;;;;;;;388.93;372.07;;;7.50;99.90;;;;;;6154047;23;20893;-71
2023/11/16 04:06:22;;;;;;;383.83;368.63;;;7.50;99.90;;;;;;6155467;23;20408;-71
2023/11/16 04:08:51;;;;;;;393.90;377.67;;;7.50;99.90;;;;;;6155356;23;20704;-71
2023/11/16 04:11:19;;;;;;;380.17;364.60;;;7.50;99.90;;;;;;6155414;23;20451;-71
2023/11/16 04:13:46;;;;;;;375.30;359.70;;;7.40;99.90;;;;;;6155033;23;20411;-71
2023/11/16 04:16:21;;;;;;;384.77;368.67;;;7.40;99.90;;;;;;6154558;23;20962;-71
2023/11/16 04:18:49;;;;;;;397.63;380.83;;;7.30;99.90;;;;;;6154649;23;20412;-71
2023/11/16 04:21:18;;;;;;;402.83;386.17;;;7.30;99.90;;;;;;6155015;23;20418;-71
2023/11/16 04:23:46;;;;;;;425.93;408.27;;;7.20;99.90;;;;;;6155774;23;20485;-71
2023/11/16 04:26:16;;;;;;;466.10;444.10;;;7.10;99.90;;;;;;6155126;23;20486;-70
2023/11/16 04:28:44;;;;;;;477.20;455.97;;;7.10;99.90;;;;;;6154575;23;20427;-71
2023/11/16 04:31:11;;;;;;;501.20;477.67;;;7.00;99.90;;;;;;6155381;23;20442;-70
2023/11/16 04:33:40;;;;;;;501.27;477.77;;;7.00;99.90;;;;;;6155176;23;20418;-71
2023/11/16 04:36:08;;;;;;;514.67;489.30;;;7.00;99.90;;;;;;6155008;23;20439;-71
2023/11/16 04:38:35;;;;;;;541.10;514.40;;;7.00;99.90;;;;;;6155058;23;20472;-71
2023/11/16 04:41:02;;;;;;;536.23;509.03;;;6.90;99.90;;;;;;6154617;23;20416;-71
2023/11/16 04:43:33;;;;;;;556.40;528.00;;;6.90;99.90;;;;;;6155486;23;20739;-71
2023/11/16 04:46:00;;;;;;;573.97;543.67;;;6.90;99.90;;;;;;6154952;23;20408;-71
2023/11/16 04:48:27;;;;;;;564.97;535.33;;;6.90;99.90;;;;;;6154822;23;20421;-71
2023/11/16 04:50:55;;;;;;;562.80;533.50;;;7.00;99.90;;;;;;6154648;23;20410;-71
2023/11/16 04:53:24;;;;;;;566.77;535.77;;;7.00;99.90;;;;;;6155040;23;20497;-71
2023/11/16 04:55:51;;;;;;;571.93;541.77;;;7.00;99.90;;;;;;6154304;23;20471;-71
2023/11/16 04:58:18;;;;;;;542.67;513.97;;;7.10;99.90;;;;;;6154531;23;20499;-71
2023/11/16 05:00:46;;;;;;;530.70;503.37;;;7.10;99.90;;;;;;6154664;23;20954;-71
2023/11/16 05:03:13;;;;;;;512.17;486.67;;;7.10;99.90;;;;;;6154868;23;20410;-71
2023/11/16 05:05:40;;;;;;;488.87;464.57;;;7.20;99.90;;;;;;6154785;23;20486;-71
2023/11/16 05:08:07;;;;;;;465.13;442.50;;;7.20;99.90;;;;;;6154381;23;20409;-71
2023/11/16 05:10:34;;;;;;;441.90;421.17;;;7.30;99.90;;;;;;6154953;23;20474;-71
2023/11/16 05:13:01;;;;;;;429.10;409.97;;;7.30;99.90;;;;;;6154990;23;20492;-71
2023/11/16 05:15:28;;;;;;;418.47;399.77;;;7.30;99.90;;;;;;6155278;23;20493;-71
2023/11/16 05:17:56;;;;;;;401.23;382.80;;;7.30;99.90;;;;;;6156774;23;20478;-71
2023/11/16 05:20:22;;;;;;;383.93;367.30;;;7.40;99.90;;;;;;6156917;23;20501;-71
2023/11/16 05:22:52;;;;;;;380.30;362.80;;;7.40;99.90;;;;;;6156342;23;20442;-71
2023/11/16 05:25:20;;;;;;;369.90;354.30;;;7.40;99.90;;;;;;6156909;23;20712;-71
2023/11/16 05:27:47;;;;;;;369.40;353.80;;;7.40;99.90;;;;;;6156817;23;20412;-71
2023/11/16 05:30:14;;;;;;;354.57;339.40;;;7.40;99.90;;;;;;6156701;23;20438;-71
2023/11/16 05:32:40;;;;;;;351.10;336.00;;;7.50;99.90;;;;;;6156601;23;20449;-71
2023/11/16 05:35:11;;;;;;;340.43;326.03;;;7.50;99.90;;;;;;6156479;23;20533;-71
2023/11/16 05:37:38;;;;;;;324.40;310.50;;;7.50;99.90;;;;;;6156942;23;20460;-71
2023/11/16 05:40:07;;;;;;;307.67;294.43;;;7.50;99.90;;;;;;6156445;23;20943;-71
2023/11/16 05:42:34;;;;;;;300.67;288.27;;;7.50;99.90;;;;;;6156857;23;20503;-71
2023/11/16 05:45:02;;;;;;;294.67;283.03;;;7.50;99.90;;;;;;6156605;23;20414;-71
2023/11/16 05:47:29;;;;;;;290.27;278.13;;;7.50;99.90;;;;;;6166149;23;20502;-71
2023/11/16 05:49:57;;;;;;;295.20;283.30;;;7.50;99.90;;;;;;6156850;23;20418;-71
2023/11/16 05:52:26;;;;;;;297.53;284.70;;;7.50;99.90;;;;;;6156853;23;20654;-71
2023/11/16 05:54:53;;;;;;;292.53;280.77;;;7.50;99.90;;;;;;6156335;23;20420;-71
2023/11/16 05:57:20;;;;;;;297.37;285.67;;;7.50;99.90;;;;;;6156389;23;20866;-71
2023/11/16 05:59:47;;;;;;;299.87;288.17;;;7.50;99.90;;;;;;6156025;23;20486;-71
2023/11/16 06:02:14;;;;;;;289.67;278.33;;;7.50;99.90;;;;;;6156100;23;20918;-71
2023/11/16 06:04:42;;;;;;;282.83;271.50;;;7.50;99.90;;;;;;6155922;23;20890;-71
2023/11/16 06:07:09;;;;;;;269.47;259.07;;;7.50;99.90;;;;;;6156696;23;20716;-71
2023/11/16 06:09:39;;;;;;;269.87;259.67;;;7.50;99.90;;;;;;6156361;23;20495;-71
2023/11/16 06:12:07;;;;;;;262.83;252.77;;;7.50;99.90;;;;;;6156603;23;20440;-71
2023/11/16 06:14:34;;;;;;;285.23;269.90;;;7.50;99.90;;;;;;6156306;23;20499;-71
2023/11/16 06:17:01;;;;;;;223.30;214.77;;;7.60;99.90;;;;;;6155746;23;20471;-71
2023/11/16 06:19:29;;;;;;;226.60;218.00;;;7.60;99.90;;;;;;6156141;23;20448;-71
2023/11/16 06:21:55;;;;;;;220.30;211.93;;;7.60;99.90;;;;;;6156159;23;20419;-71
2023/11/16 06:24:22;;;;;;;230.80;222.23;;;7.60;99.90;;;;;;6156058;23;20493;-71
2023/11/16 06:26:51;;;;;;;215.50;206.40;;;7.60;99.90;;;;;;6155687;23;20409;-71
2023/11/16 06:29:17;;;;;;;204.03;196.53;;;7.60;99.90;;;;;;6155411;23;20416;-71
2023/11/16 06:31:44;;;;;;;206.13;198.03;;;7.50;99.90;;;;;;6156260;23;20413;-71
2023/11/16 06:34:12;;;;;;;203.47;195.77;;;7.50;99.90;;;;;;6155641;23;20487;-71
2023/11/16 06:36:41;;;;;;;207.17;199.67;;;7.40;99.90;;;;;;6155956;23;20956;-71
2023/11/16 06:39:08;;;;;;;223.77;214.93;;;7.40;99.90;;;;;;6155807;23;20496;-71
2023/11/16 06:41:35;;;;;;;240.97;231.67;;;7.30;99.90;;;;;;6156071;23;20691;-71
2023/11/16 06:44:05;;;;;;;265.40;255.23;;;7.20;99.90;;;;;;6155791;23;20415;-71
2023/11/16 06:46:33;;;;;;;290.47;279.03;;;7.20;99.90;;;;;;6155779;23;20409;-71
2023/11/16 06:49:01;;;;;;;313.63;301.03;;;7.20;99.90;;;;;;6155631;23;20899;-71
2023/11/16 06:51:29;;;;;;;320.23;307.07;;;7.20;99.90;;;;;;6156043;23;20422;-71
2023/11/16 06:53:56;;;;;;;322.60;309.17;;;7.30;99.90;;;;;;6156066;23;20466;-71
2023/11/16 06:56:27;;;;;;;319.43;306.37;;;7.30;99.90;;;;;;6155361;23;20440;-71
2023/11/16 06:58:54;;;;;;;322.50;309.67;;;7.40;99.90;;;;;;6155444;23;20490;-71
2023/11/16 07:01:22;;;;;;;305.67;293.53;;;7.40;99.90;;;;;;6155927;23;20440;-71
2023/11/16 07:03:49;;;;;;;287.30;276.27;;;7.40;99.90;;;;;;6155781;23;20417;-71
2023/11/16 07:06:18;;;;;;;279.17;268.70;;;7.40;99.90;;;;;;6155090;23;20440;-71
2023/11/16 07:08:46;;;;;;;255.63;246.03;;;7.50;99.90;;;;;;6154440;23;20411;-71
2023/11/16 07:11:15;;;;;;;276.07;265.10;;;7.50;99.90;;;;;;6155227;23;20414;-71
2023/11/16 07:13:42;;;;;;;270.23;259.57;;;7.50;99.90;;;;;;6155924;23;20446;-71
2023/11/16 07:16:09;;;;;;;260.50;250.90;;;7.50;99.90;;;;;;6155323;23;20447;-71
2023/11/16 07:18:39;;;;;;;246.17;237.00;;;7.50;99.90;;;;;;6154827;23;20931;-71
2023/11/16 07:21:06;;;;;;;236.30;227.00;;;7.60;99.90;;;;;;6155101;23;20974;-71
2023/11/16 07:23:36;;;;;;;217.67;210.10;;;7.60;99.90;;;;;;6155312;23;20469;-71
2023/11/16 07:26:08;;;;;;;216.80;208.77;;;7.60;99.90;;;;;;6155514;23;20408;-71
2023/11/16 07:28:36;;;;;;;226.03;217.23;;;7.60;99.90;;;;;;6155095;23;20424;-71
2023/11/16 07:31:04;;;;;;;227.13;218.63;;;7.60;99.90;;;;;;6155749;23;20418;-71
2023/11/16 07:33:34;;;;;;;211.90;204.20;;;7.60;99.90;;;;;;6155722;23;20503;-71
2023/11/16 07:36:02;;;;;;;173.82;166.68;;;7.60;99.90;;;;;;6153780;23;20426;-70
2023/11/16 07:38:31;;;;;;;153.73;148.03;;;7.70;99.90;;;;;;6155668;23;20294;-70
2023/11/16 07:40:59;;;;;;;163.93;156.80;;;7.70;99.90;;;;;;6155947;23;20427;-70
2023/11/16 07:43:26;;;;;;;163.43;156.70;;;7.70;99.90;;;;;;6155648;23;20500;-70
2023/11/16 07:45:53;;;;;;;194.17;186.67;;;7.70;99.90;;;;;;6154997;23;20919;-70
2023/11/16 07:48:20;;;;;;;233.53;224.07;;;7.70;99.90;;;;;;6155344;23;20726;-70
2023/11/16 07:50:47;;;;;;;264.47;254.73;;;7.70;99.90;;;;;;6155432;23;20478;-71
2023/11/16 07:53:16;;;;;;;286.37;275.73;;;7.70;99.90;;;;;;6155546;23;20776;-71
2023/11/16 07:55:48;;;;;;;312.90;301.33;;;7.80;99.90;;;;;;6155133;23;20423;-70
2023/11/16 07:58:17;;;;;;;313.23;301.47;;;7.80;99.90;;;;;;6154091;23;20459;-70
2023/11/16 08:00:55;;;;;;;325.10;312.10;;;7.80;99.90;;;;;;6155089;23;20716;-70
2023/11/16 08:06:12;;;;;;;285.30;274.93;;;7.90;99.90;;;;;;6154463;23;20381;-70
2023/11/16 08:08:42;;;;;;;287.60;276.67;;;7.90;99.90;;;;;;6154836;23;20418;-70
2023/11/16 08:11:11;;;;;;;269.87;260.13;;;7.90;99.90;;;;;;6154613;23;20428;-70
2023/11/16 08:13:41;;;;;;;235.73;227.23;;;8.00;99.90;;;;;;6154495;23;20414;-70
2023/11/16 08:16:09;;;;;;;201.73;194.30;;;8.20;99.90;;;;;;6154498;23;20437;-70
2023/11/16 08:18:38;;;;;;;180.17;173.60;;;8.30;99.90;;;;;;6154799;23;20473;-70
2023/11/16 08:21:06;;;;;;;167.40;160.67;;;8.40;99.90;;;;;;6154626;23;20417;-70
2023/11/16 08:23:38;;;;;;;139.63;134.00;;;8.60;99.90;;;;;;6154256;23;20417;-70
2023/11/16 08:26:07;;;;;;;123.63;118.83;;;8.70;99.90;;;;;;6154646;23;20418;-70
2023/11/16 08:28:35;;;;;;;102.37;98.40;;;8.80;99.90;;;;;;6155106;23;20410;-70
2023/11/16 08:31:02;;;;;;;105.20;100.67;;;9.00;99.90;;;;;;6155133;23;20417;-70
2023/11/16 08:33:31;;;;;;;90.50;86.40;;;9.10;99.90;;;;;;6155286;23;20411;-70
2023/11/16 08:35:58;;;;;;;63.20;60.03;;;9.20;99.90;;;;;;6154654;23;20725;-70
2023/11/16 08:38:26;;;;;;;45.00;42.20;;;9.20;99.90;;;;;;6154628;23;20414;-70
2023/11/16 08:40:54;;;;;;;31.00;28.60;;;9.30;99.90;;;;;;6154741;23;20409;-70
2023/11/16 08:43:23;;;;;;;24.47;22.60;;;9.40;99.90;;;;;;6155168;23;20419;-70
2023/11/16 08:45:51;;;;;;;23.03;21.03;;;9.50;99.90;;;;;;6155047;23;20465;-70
2023/11/16 08:48:30;;;;;;;18.23;16.93;;;9.50;99.90;;;;;;6154873;23;20410;-70
2023/11/16 08:50:58;;;;;;;19.73;17.47;;;9.60;99.90;;;;;;6155081;23;20394;-70
2023/11/16 08:53:28;;;;;;;13.40;12.17;;;9.80;99.90;;;;;;6155064;23;20442;-70
2023/11/16 08:55:56;;;;;;;18.27;9.10;;;10.00;99.90;;;;;;6154437;23;20454;-70
2023/11/16 08:58:25;;;;;;;11.37;6.70;;;10.10;99.90;;;;;;6154568;23;20951;-70
2023/11/16 09:00:53;;;;;;;13.63;5.33;;;10.20;99.90;;;;;;6155108;23;20417;-70
2023/11/16 09:03:21;;;;;;;19.83;5.93;;;10.10;99.90;;;;;;6155097;23;20483;-70
2023/11/16 09:05:48;;;;;;;16.43;5.40;;;9.90;99.90;;;;;;6154505;23;20417;-70
2023/11/16 09:08:15;;;;;;;9.30;4.27;;;9.80;99.90;;;;;;6154135;23;20450;-70
2023/11/16 09:10:43;;;;;;;18.03;5.27;;;9.80;99.90;;;;;;6154963;23;20446;-70
2023/11/16 09:13:11;;;;;;;17.23;6.50;;;9.70;99.90;;;;;;6154923;23;20415;-70
2023/11/16 09:15:40;;;;;;;13.70;5.80;;;9.60;99.00;;;;;;6154618;23;20445;-70
2023/11/16 09:18:09;;;;;;;19.33;6.40;;;9.50;99.90;;;;;;6154182;23;20444;-70
2023/11/16 09:20:37;;;;;;;12.13;6.30;;;9.40;99.90;;;;;;6154721;23;20419;-70
2023/11/16 09:23:06;;;;;;;14.03;5.90;;;9.40;99.90;;;;;;6155040;23;20412;-70
2023/11/16 09:25:34;;;;;;;18.90;7.20;;;9.40;99.90;;;;;;6154439;23;20413;-70
2023/11/16 09:28:01;;;;;;;18.93;7.83;;;9.50;99.90;;;;;;6154458;23;20414;-70
2023/11/16 09:30:28;;;;;;;12.93;6.10;;;9.70;99.90;;;;;;6154762;23;20446;-70
2023/11/16 09:32:57;;;;;;;12.93;5.50;;;10.00;99.90;;;;;;6154656;23;20500;-70
2023/11/16 09:35:25;;;;;;;12.40;6.20;;;10.10;98.30;;;;;;6154414;23;20890;-70
2023/11/16 09:37:53;;;;;;;19.20;7.30;;;10.20;98.30;;;;;;6154323;23;20435;-70
2023/11/16 09:40:21;;;;;;;17.23;4.47;;;10.30;98.30;;;;;;6154722;23;20411;-70
2023/11/16 09:42:56;;;;;;;13.17;4.73;;;10.20;97.70;;;;;;6154532;23;20930;-70
2023/11/16 09:45:27;;;;;;;16.13;4.50;;;10.30;97.70;;;;;;6154437;23;20710;-71
2023/11/16 09:47:58;;;;;;;9.73;4.03;;;10.40;97.80;;;;;;6154157;23;20395;-70
2023/11/16 09:50:27;;;;;;;19.57;4.30;;;10.40;97.80;;;;;;6154424;23;20716;-70
2023/11/16 09:52:56;;;;;;;15.67;5.10;;;10.30;97.70;;;;;;6154943;23;20989;-70
2023/11/16 09:55:26;;;;;;;9.50;5.00;;;10.20;97.70;;;;;;6154013;23;20885;-70
2023/11/16 09:57:58;;;;;;;12.17;4.40;;;10.20;97.70;;;;;;6154285;23;20440;-70
2023/11/16 10:00:26;;;;;;;12.90;4.30;;;10.10;97.70;;;;;;6154972;23;20475;-70
2023/11/16 10:02:57;;;;;;;13.63;4.30;;;10.10;97.70;;;;;;6154991;23;20413;-70
2023/11/16 10:05:34;;;;;;;11.60;4.20;;;10.00;97.60;;;;;;6156612;23;20408;-70
2023/11/16 10:08:06;;;;;;;14.20;7.07;;;9.90;99.00;;;;;;6156045;23;20450;-70
2023/11/16 10:10:35;;;;;;;11.90;5.35;;;9.80;98.00;;;;;;6156146;23;20843;-70
2023/11/16 10:13:04;;;;;;;10.02;4.63;;;9.70;99.60;;;;;;6154673;23;20413;-70
2023/11/16 10:15:32;;;;;;;9.50;4.10;;;9.70;99.60;;;;;;6156013;23;20630;-70
2023/11/16 10:18:01;;;;;;;9.90;4.73;;;9.60;99.80;;;;;;6155605;23;20744;-70
2023/11/16 10:20:31;;;;;;;9.53;4.60;;;9.50;98.80;;;;;;6156467;23;20411;-70
2023/11/16 10:22:58;;;;;;;8.23;4.73;;;9.50;99.80;;;;;;6156859;23;20398;-70
2023/11/16 10:25:25;;;;;;;11.30;5.33;;;9.50;99.90;;;;;;6156210;23;20905;-70
2023/11/16 10:27:52;;;;;;;11.47;5.03;;;9.40;99.90;;;;;;6156071;23;20493;-70
2023/11/16 10:30:21;;;;;;;9.03;4.60;;;9.20;99.90;;;;;;6155837;23;20895;-70
2023/11/16 10:32:49;;;;;;;10.70;4.83;;;9.20;99.90;;;;;;6156340;23;20801;-70
2023/11/16 10:35:17;;;;;;;6.20;4.63;;;9.10;99.90;;;;;;6156071;23;20624;-70
2023/11/16 10:37:46;;;;;;;11.47;6.43;;;9.10;99.70;;;;;;6156186;23;20494;-69
2023/11/16 10:40:13;;;;;;;17.23;4.83;;;9.10;99.90;;;;;;6156010;23;20473;-70
2023/11/16 10:42:41;;;;;;;9.03;5.90;;;9.00;99.90;;;;;;6156337;23;20469;-70
2023/11/16 10:45:14;;;;;;;17.63;6.40;;;9.10;99.90;;;;;;6156304;23;20414;-70
2023/11/16 10:47:45;;;;;;;11.63;6.63;;;9.10;99.90;;;;;;6156172;23;20395;-70
2023/11/16 10:50:15;;;;;;;13.07;6.90;;;9.20;99.90;;;;;;6156008;23;20493;-70
2023/11/16 10:52:45;;;;;;;10.90;8.47;;;9.20;99.90;;;;;;6156165;23;20398;-70
2023/11/16 10:55:21;;;;;;;16.23;9.53;;;9.30;99.90;;;;;;6155914;23;20458;-70
2023/11/16 10:57:50;;;;;;;10.73;9.40;;;9.30;99.90;;;;;;6156239;23;20921;-70
2023/11/16 11:00:19;;;;;;;15.60;7.70;;;9.30;99.90;;;;;;6156014;23;20688;-70
2023/11/16 11:02:47;;;;;;;13.00;6.30;;;9.40;99.90;;;;;;6155835;23;20458;-70
2023/11/16 11:05:19;;;;;;;10.47;6.40;;;9.40;99.90;;;;;;6155602;23;20411;-70
2023/11/16 11:07:54;;;;;;;11.73;7.43;;;9.40;99.90;;;;;;6155961;23;20394;-70
2023/11/16 11:10:23;;;;;;;12.60;6.13;;;9.50;99.90;;;;;;6155741;23;20396;-70
2023/11/16 11:12:50;;;;;;;14.67;6.07;;;9.40;99.90;;;;;;6155922;23;20419;-70
2023/11/16 11:15:29;;;;;;;8.27;5.70;;;9.40;99.90;;;;;;6155144;23;20595;-70
2023/11/16 11:17:57;;;;;;;21.87;8.07;;;9.40;99.90;;;;;;6155771;23;20517;-70
2023/11/16 11:20:36;;;;;;;11.90;7.50;;;9.50;99.90;;;;;;6155576;23;20414;-70
2023/11/16 11:23:13;;;;;;;16.90;8.63;;;9.50;99.90;;;;;;6155888;23;20875;-70
2023/11/16 11:25:41;;;;;;;12.30;6.97;;;9.60;99.90;;;;;;6155959;23;20451;-70
2023/11/16 11:28:08;;;;;;;12.50;7.00;;;9.50;99.90;;;;;;6155293;23;20410;-70
2023/11/16 11:30:37;;;;;;;16.40;7.20;;;9.50;99.90;;;;;;6155374;23;20421;-70
2023/11/16 11:33:07;;;;;;;9.17;6.73;;;9.50;99.90;;;;;;6155844;23;20410;-70
2023/11/16 11:35:37;;;;;;;11.30;6.97;;;9.50;99.90;;;;;;6155094;23;20410;-70
2023/11/16 11:38:18;;;;;;;15.27;6.10;;;9.50;99.60;;;;;;6155579;23;20941;-70
2023/11/16 11:40:48;;;;;;;11.43;7.30;;;9.50;99.30;;;;;;6155868;23;20758;-70
2023/11/16 11:43:22;;;;;;;12.13;8.30;;;9.40;99.90;;;;;;6155329;23;20395;-70
2023/11/16 11:45:49;;;;;;;12.13;8.83;;;9.40;99.90;;;;;;6155634;23;20501;-70
2023/11/16 11:48:16;;;;;;;11.37;8.53;;;9.40;99.90;;;;;;6155020;23;20469;-70
2023/11/16 11:50:43;;;;;;;14.80;8.80;;;9.40;99.90;;;;;;6155282;23;20749;-70
2023/11/16 11:53:16;;;;;;;14.03;9.80;;;9.30;99.90;;;;;;6155149;23;20417;-70
2023/11/16 11:55:47;;;;;;;14.83;11.00;;;9.30;99.90;;;;;;6155051;23;20508;-70
2023/11/16 11:58:14;;;;;;;12.97;11.77;;;9.40;99.90;;;;;;6154769;23;20480;-70
2023/11/16 12:00:48;;;;;;;19.50;13.70;;;9.40;99.90;;;;;;6155372;23;20501;-70
2023/11/16 12:03:16;;;;;;;21.73;11.87;;;9.40;99.90;;;;;;6155103;23;20432;-70
2023/11/16 12:05:45;;;;;;;21.60;10.60;;;9.30;99.90;;;;;;6153586;23;20413;-70
2023/11/16 12:08:12;;;;;;;16.00;11.03;;;9.20;99.90;;;;;;6153754;23;20409;-70
2023/11/16 12:10:39;;;;;;;15.47;11.30;;;9.10;99.90;;;;;;6154389;23;20452;-70
2023/11/16 12:13:08;;;;;;;18.33;13.47;;;9.00;99.90;;;;;;6154740;23;20498;-70
2023/11/16 12:15:36;;;;;;;21.73;18.57;;;9.00;99.90;;;;;;6154858;23;20414;-70
2023/11/16 12:18:10;;;;;;;19.70;16.27;;;8.90;99.90;;;;;;6154274;23;20435;-70
2023/11/16 12:20:40;;;;;;;20.60;17.80;;;8.80;99.90;;;;;;6155308;23;20755;-70
2023/11/16 12:23:08;;;;;;;24.07;22.00;;;8.80;99.90;;;;;;6155002;23;20418;-70
2023/11/16 12:25:37;;;;;;;27.50;18.07;;;8.80;99.90;;;;;;6154515;23;20420;-70
2023/11/16 12:28:05;;;;;;;31.07;20.83;;;8.70;99.90;;;;;;6154633;23;20444;-70
2023/11/16 12:30:37;;;;;;;27.60;25.27;;;8.70;99.90;;;;;;6155139;23;20432;-70
2023/11/16 12:33:06;;;;;;;22.03;19.97;;;8.70;99.90;;;;;;6155272;23;20398;-70
2023/11/16 12:35:37;;;;;;;25.80;23.23;;;8.70;99.90;;;;;;6154742;23;20915;-70